createdAt,value
2019-04-01T00:02:55.915Z,56.86
2019-04-01T00:05:59.202Z,56.87
2019-04-01T00:09:02.521Z,56.75
2019-04-01T00:12:05.840Z,56.63
2019-04-01T00:15:09.137Z,56.98
2019-04-01T00:18:12.530Z,57.51
2019-04-01T00:21:15.833Z,57.43
2019-04-01T00:24:19.221Z,57.34
2019-04-01T00:27:22.557Z,56.79
2019-04-01T00:30:25.840Z,57.54
2019-04-01T00:33:29.284Z,57.59
2019-04-01T00:36:32.618Z,57.86
2019-04-01T00:39:35.935Z,57.99
2019-04-01T00:42:52.549Z,58.21
2019-04-01T00:45:57.468Z,58.41
2019-04-01T00:49:00.792Z,58.31
2019-04-01T00:52:04.148Z,58.61
2019-04-01T00:55:07.634Z,58.68
2019-04-01T00:58:10.954Z,58.62
2019-04-01T01:01:14.299Z,59.03
2019-04-01T01:04:17.741Z,59.18
2019-04-01T01:07:21.022Z,59.42
2019-04-01T01:10:24.320Z,59.49
2019-04-01T01:13:27.719Z,59.87
2019-04-01T01:16:31.018Z,59.74
2019-04-01T01:19:34.321Z,59.79
2019-04-01T01:22:37.621Z,60.65
2019-04-01T01:25:40.927Z,60.70
2019-04-01T01:28:44.423Z,60.61
2019-04-01T01:31:47.707Z,60.63
2019-04-01T01:34:51.102Z,60.69
2019-04-01T01:37:54.439Z,61.21
2019-04-01T01:40:57.753Z,60.36
2019-04-01T01:44:01.182Z,60.80
2019-04-01T01:47:04.497Z,60.51
2019-04-01T01:50:07.825Z,60.08
2019-04-01T01:53:11.147Z,61.04
2019-04-01T01:56:14.444Z,60.85
2019-04-01T01:59:17.750Z,61.02
2019-04-01T02:02:21.118Z,61.25
2019-04-01T02:05:24.441Z,61.39
2019-04-01T02:08:27.731Z,61.55
2019-04-01T02:11:31.112Z,61.88
2019-04-01T02:14:34.701Z,61.61
2019-04-01T02:17:38.008Z,61.95
2019-04-01T02:20:41.303Z,61.38
2019-04-01T02:23:44.614Z,61.64
2019-04-01T02:26:47.943Z,61.61
2019-04-01T02:29:51.250Z,61.53
2019-04-01T02:32:54.595Z,61.41
2019-04-01T02:35:57.870Z,61.43
2019-04-01T02:39:01.164Z,61.27
2019-04-01T02:42:04.749Z,61.73
2019-04-01T02:45:08.087Z,61.73
2019-04-01T02:48:11.384Z,61.82
2019-04-01T02:51:14.754Z,61.91
2019-04-01T02:54:18.070Z,62.15
2019-04-01T02:57:21.365Z,62.16
2019-04-01T03:00:24.678Z,61.77
2019-04-01T03:03:27.968Z,61.71
2019-04-01T03:06:31.335Z,61.61
2019-04-01T03:09:34.623Z,61.77
2019-04-01T03:12:38.022Z,62.29
2019-04-01T03:15:41.339Z,61.88
2019-04-01T03:18:44.639Z,61.69
2019-04-01T03:21:48.038Z,62.23
2019-04-01T03:24:51.433Z,62.15
2019-04-01T03:27:54.834Z,62.37
2019-04-01T03:30:58.172Z,62.09
2019-04-01T03:34:01.458Z,62.56
2019-04-01T03:37:04.824Z,62.34
2019-04-01T03:40:08.313Z,62.75
2019-04-01T03:43:11.603Z,62.22
2019-04-01T03:46:14.891Z,61.80
2019-04-01T03:49:18.197Z,62.17
2019-04-01T03:52:21.486Z,61.97
2019-04-01T03:55:24.873Z,61.91
2019-04-01T03:58:28.191Z,62.30
2019-04-01T04:01:31.548Z,62.25
2019-04-01T04:04:34.856Z,62.99
2019-04-01T04:07:38.190Z,62.75
2019-04-01T04:10:41.519Z,62.60
2019-04-01T04:13:44.812Z,62.52
2019-04-01T04:16:48.129Z,62.21
2019-04-01T04:19:51.411Z,61.88
2019-04-01T04:22:54.749Z,62.25
2019-04-01T04:25:58.054Z,62.38
2019-04-01T04:29:01.345Z,62.10
2019-04-01T04:32:04.647Z,62.72
2019-04-01T04:35:07.944Z,62.88
2019-04-01T04:38:11.242Z,62.66
2019-04-01T04:41:14.536Z,62.92
2019-04-01T04:44:17.847Z,62.94
2019-04-01T04:47:21.184Z,63.13
2019-04-01T04:50:24.512Z,63.20
2019-04-01T04:53:27.991Z,62.59
2019-04-01T04:56:31.277Z,62.31
2019-04-01T04:59:34.642Z,62.17
2019-04-01T05:02:37.960Z,62.71
2019-04-01T05:05:41.268Z,62.76
2019-04-01T05:08:44.634Z,62.41
2019-04-01T05:11:48.106Z,61.69
2019-04-01T05:14:51.393Z,61.55
2019-04-01T05:17:54.787Z,60.59
2019-04-01T05:20:59.045Z,60.37
2019-04-01T05:24:02.438Z,59.84
2019-04-01T05:27:05.742Z,58.90
2019-04-01T05:30:09.330Z,58.73
2019-04-01T05:33:12.725Z,58.75
2019-04-01T05:36:16.048Z,57.96
2019-04-01T05:39:19.898Z,56.76
2019-04-01T05:42:23.297Z,55.35
2019-04-01T05:45:26.862Z,53.86
2019-04-01T05:48:31.476Z,54.10
2019-04-01T05:51:34.810Z,53.20
2019-04-01T05:54:38.080Z,52.94
2019-04-01T05:57:41.376Z,52.03
2019-04-01T06:00:46.351Z,52.83
2019-04-01T06:03:49.716Z,51.73
2019-04-01T06:06:52.952Z,49.95
2019-04-01T06:09:56.248Z,52.07
2019-04-01T06:12:59.724Z,51.76
2019-04-01T06:16:03.089Z,50.63
2019-04-01T06:19:06.379Z,51.26
2019-04-01T06:22:09.641Z,50.15
2019-04-01T06:25:12.978Z,49.69
2019-04-01T06:28:16.294Z,49.19
2019-04-01T06:31:19.586Z,46.82
2019-04-01T06:34:22.891Z,46.86
2019-04-01T06:37:26.185Z,47.58
2019-04-01T06:40:29.545Z,46.51
2019-04-01T06:43:32.829Z,45.20
2019-04-01T06:46:36.173Z,44.89
2019-04-01T06:49:39.437Z,45.25
2019-04-01T06:52:42.721Z,45.03
2019-04-01T06:55:46.020Z,45.59
2019-04-01T06:58:49.311Z,47.29
2019-04-01T07:01:52.717Z,45.47
2019-04-01T07:04:56.024Z,45.05
2019-04-01T07:07:59.359Z,45.16
2019-04-01T07:11:02.682Z,45.48
2019-04-01T07:14:05.997Z,45.90
2019-04-01T07:17:09.299Z,44.53
2019-04-01T07:20:12.633Z,43.12
2019-04-01T07:23:15.941Z,44.43
2019-04-01T07:26:19.249Z,43.72
2019-04-01T07:29:24.385Z,44.73
2019-04-01T07:32:27.698Z,42.06
2019-04-01T07:35:31.054Z,41.02
2019-04-01T07:38:34.430Z,40.84
2019-04-01T07:41:37.786Z,40.15
2019-04-01T07:44:41.081Z,40.00
2019-04-01T07:47:44.415Z,40.83
2019-04-01T07:50:47.781Z,41.07
2019-04-01T07:53:51.275Z,40.94
2019-04-01T07:56:54.614Z,41.70
2019-04-01T07:59:57.965Z,40.60
2019-04-01T08:03:01.312Z,39.63
2019-04-01T08:06:04.584Z,39.91
2019-04-01T08:09:07.945Z,37.74
2019-04-01T08:12:11.285Z,42.10
2019-04-01T08:15:14.759Z,40.59
2019-04-01T08:18:18.923Z,39.58
2019-04-01T08:21:22.229Z,39.81
2019-04-01T08:24:25.544Z,39.05
2019-04-01T08:27:28.927Z,38.39
2019-04-01T08:30:32.210Z,36.84
2019-04-01T08:33:35.496Z,38.08
2019-04-01T08:36:38.828Z,38.99
2019-04-01T08:39:42.233Z,36.68
2019-04-01T08:42:48.823Z,39.27
2019-04-01T08:45:50.563Z,36.19
2019-04-01T08:48:53.865Z,34.61
2019-04-01T08:51:57.282Z,36.36
2019-04-01T08:55:00.606Z,34.58
2019-04-01T08:58:03.905Z,35.07
2019-04-01T09:01:07.214Z,32.72
2019-04-01T09:04:10.506Z,32.70
2019-04-01T09:07:13.818Z,31.75
2019-04-01T09:10:17.133Z,33.72
2019-04-01T09:13:20.685Z,36.76
2019-04-01T09:16:24.007Z,35.33
2019-04-01T09:19:27.286Z,35.03
2019-04-01T09:22:30.605Z,33.61
2019-04-01T09:25:33.913Z,32.93
2019-04-01T09:28:37.218Z,33.49
2019-04-01T09:31:40.535Z,31.92
2019-04-01T09:34:43.833Z,32.01
2019-04-01T09:37:47.144Z,30.22
2019-04-01T09:40:50.505Z,30.44
2019-04-01T09:43:53.738Z,30.36
2019-04-01T09:46:57.043Z,30.77
2019-04-01T09:50:00.411Z,27.30
2019-04-01T09:53:03.687Z,27.35
2019-04-01T09:56:06.984Z,27.31
2019-04-01T09:59:10.352Z,26.55
2019-04-01T10:02:13.665Z,26.56
2019-04-01T10:05:17.036Z,25.58
2019-04-01T10:08:20.428Z,27.13
2019-04-01T10:11:23.818Z,25.38
2019-04-01T10:14:27.269Z,25.25
2019-04-01T10:17:30.644Z,25.07
2019-04-01T10:20:34.018Z,24.58
2019-04-01T10:23:37.383Z,22.94
2019-04-01T10:26:40.790Z,22.58
2019-04-01T10:29:44.172Z,24.10
2019-04-01T10:32:47.558Z,22.14
2019-04-01T10:35:50.921Z,22.51
2019-04-01T10:38:54.356Z,22.37
2019-04-01T10:41:57.741Z,23.94
2019-04-01T10:45:01.119Z,23.63
2019-04-01T10:48:04.509Z,21.45
2019-04-01T10:51:08.058Z,21.77
2019-04-01T10:54:11.507Z,21.72
2019-04-01T10:57:14.897Z,21.05
2019-04-01T11:00:18.330Z,23.77
2019-04-01T11:03:21.709Z,24.37
2019-04-01T11:06:25.217Z,25.30
2019-04-01T11:09:38.155Z,23.47
2019-04-01T11:12:33.744Z,23.88
2019-04-01T11:15:37.206Z,22.92
2019-04-01T11:18:40.921Z,22.65
2019-04-01T11:21:44.648Z,27.56
2019-04-01T11:24:48.026Z,24.01
2019-04-01T11:27:51.421Z,23.75
2019-04-01T11:30:54.843Z,24.75
2019-04-01T11:33:58.216Z,24.12
2019-04-01T11:37:01.616Z,25.03
2019-04-01T11:40:11.364Z,24.09
2019-04-01T11:43:13.322Z,24.79
2019-04-01T11:46:16.691Z,23.04
2019-04-01T11:49:20.158Z,22.50
2019-04-01T11:52:23.516Z,22.49
2019-04-01T11:55:26.877Z,24.26
2019-04-01T11:58:30.266Z,21.72
2019-04-01T12:01:36.636Z,22.13
2019-04-01T12:04:38.792Z,21.61
2019-04-01T12:07:42.190Z,23.28
2019-04-01T12:10:45.586Z,22.84
2019-04-01T12:13:48.951Z,21.67
2019-04-01T12:16:52.404Z,21.69
2019-04-01T12:19:55.827Z,20.60
2019-04-01T12:22:59.210Z,18.60
2019-04-01T12:26:14.334Z,18.95
2019-04-01T12:29:07.712Z,20.88
2019-04-01T12:32:11.105Z,20.35
2019-04-01T12:35:14.490Z,20.49
2019-04-01T12:38:17.858Z,23.16
2019-04-01T12:41:21.263Z,25.40
2019-04-01T12:44:24.724Z,24.96
2019-04-01T12:47:28.175Z,21.74
2019-04-01T12:50:31.579Z,21.82
2019-04-01T12:53:34.962Z,19.40
2019-04-01T12:56:38.347Z,22.70
2019-04-01T12:59:42.338Z,22.95
2019-04-01T13:02:46.842Z,21.13
2019-04-01T13:05:50.209Z,22.00
2019-04-01T13:08:54.007Z,22.43
2019-04-01T13:11:57.365Z,24.13
2019-04-01T13:15:00.739Z,21.57
2019-04-01T13:18:04.126Z,22.82
2019-04-01T13:21:07.621Z,24.22
2019-04-01T13:24:11.065Z,24.20
2019-04-01T13:27:14.483Z,24.24
2019-04-01T13:30:17.845Z,27.51
2019-04-01T13:33:21.158Z,28.19
2019-04-01T13:36:24.524Z,30.52
2019-04-01T13:39:27.838Z,30.57
2019-04-01T13:42:31.233Z,31.51
2019-04-01T13:45:34.536Z,31.98
2019-04-01T13:48:37.853Z,31.28
2019-04-01T13:51:43.569Z,31.31
2019-04-01T13:54:46.202Z,31.20
2019-04-01T13:57:49.536Z,31.78
2019-04-01T14:00:52.901Z,32.40
2019-04-01T14:03:56.218Z,32.83
2019-04-01T14:06:59.491Z,32.54
2019-04-01T14:10:03.060Z,33.23
2019-04-01T14:13:06.371Z,32.10
2019-04-01T14:16:11.288Z,31.04
2019-04-01T14:19:14.602Z,31.27
2019-04-01T14:22:17.930Z,29.34
2019-04-01T14:25:21.327Z,30.45
2019-04-01T14:28:24.608Z,30.09
2019-04-01T14:31:27.914Z,29.76
2019-04-01T14:34:31.219Z,30.29
2019-04-01T14:37:34.540Z,31.23
2019-04-01T14:40:37.924Z,30.98
2019-04-01T14:43:41.203Z,29.81
2019-04-01T14:46:44.527Z,29.89
2019-04-01T14:49:47.829Z,30.12
2019-04-01T14:52:51.129Z,30.66
2019-04-01T14:55:54.473Z,30.90
2019-04-01T14:58:57.805Z,31.14
2019-04-01T15:02:03.634Z,29.61
2019-04-01T15:05:06.382Z,29.43
2019-04-01T15:08:09.754Z,29.71
2019-04-01T15:11:13.045Z,30.05
2019-04-01T15:14:16.379Z,30.38
2019-04-01T15:17:19.811Z,30.19
2019-04-01T15:20:23.117Z,30.33
2019-04-01T15:23:27.474Z,30.53
2019-04-01T15:26:31.210Z,29.96
2019-04-01T15:29:34.517Z,30.78
2019-04-01T15:32:37.896Z,30.69
2019-04-01T15:35:41.152Z,30.95
2019-04-01T15:38:44.502Z,30.74
2019-04-01T15:41:47.849Z,30.88
2019-04-01T15:44:51.134Z,30.76
2019-04-01T15:47:54.471Z,31.29
2019-04-01T15:50:57.777Z,31.73
2019-04-01T15:54:01.609Z,31.74
2019-04-01T15:57:05.115Z,31.78
2019-04-01T16:00:08.439Z,31.95
2019-04-01T16:03:11.779Z,32.19
2019-04-01T16:06:15.094Z,32.51
2019-04-01T16:09:18.440Z,31.96
2019-04-01T16:12:21.779Z,31.70
2019-04-01T16:15:25.172Z,31.57
2019-04-01T16:18:28.443Z,32.06
2019-04-01T16:21:31.788Z,32.22
2019-04-01T16:24:35.102Z,32.66
2019-04-01T16:27:38.420Z,32.81
2019-04-01T16:30:41.824Z,32.94
2019-04-01T16:33:45.133Z,32.80
2019-04-01T16:36:48.482Z,32.94
2019-04-01T16:39:54.478Z,33.46
2019-04-01T16:42:56.870Z,33.28
2019-04-01T16:46:00.234Z,33.42
2019-04-01T16:49:03.579Z,34.10
2019-04-01T16:52:06.952Z,34.35
2019-04-01T16:55:10.334Z,33.82
2019-04-01T16:58:13.674Z,34.06
2019-04-01T17:01:17.118Z,34.01
2019-04-01T17:04:20.515Z,34.35
2019-04-01T17:07:23.849Z,33.88
2019-04-01T17:10:27.209Z,33.48
2019-04-01T17:13:30.544Z,33.49
2019-04-01T17:16:33.945Z,33.38
2019-04-01T17:19:37.268Z,33.60
2019-04-01T17:22:40.762Z,33.79
2019-04-01T17:25:44.069Z,33.78
2019-04-01T17:28:47.390Z,34.09
2019-04-01T17:31:50.712Z,34.74
2019-04-01T17:34:54.049Z,34.81
2019-04-01T17:37:57.365Z,35.11
2019-04-01T17:41:02.552Z,35.49
2019-04-01T17:44:05.886Z,36.25
2019-04-01T17:47:09.267Z,36.43
2019-04-01T17:50:12.602Z,36.67
2019-04-01T17:53:15.919Z,36.73
2019-04-01T17:56:19.335Z,37.21
2019-04-01T17:59:22.685Z,37.04
2019-04-01T18:02:26.111Z,37.39
2019-04-01T18:05:29.446Z,37.35
2019-04-01T18:08:34.113Z,38.00
2019-04-01T18:11:37.605Z,38.25
2019-04-01T18:14:42.133Z,38.60
2019-04-01T18:17:48.299Z,38.81
2019-04-01T18:20:54.828Z,39.24
2019-04-01T18:23:58.193Z,38.96
2019-04-01T18:27:01.566Z,38.94
2019-04-01T18:30:09.410Z,39.68
2019-04-01T18:33:12.771Z,39.54
2019-04-01T18:36:16.106Z,39.46
2019-04-01T18:39:19.492Z,39.88
2019-04-01T18:42:22.827Z,39.60
2019-04-01T18:45:26.183Z,39.74
2019-04-01T18:48:29.499Z,39.75
2019-04-01T18:51:33.980Z,39.70
2019-04-01T18:54:37.865Z,39.67
2019-04-01T18:57:41.225Z,39.72
2019-04-01T19:00:44.555Z,39.22
2019-04-01T19:03:47.903Z,39.57
2019-04-01T19:06:51.227Z,39.63
2019-04-01T19:10:05.537Z,39.23
2019-04-01T19:13:05.994Z,39.04
2019-04-01T19:16:06.181Z,39.06
2019-04-01T19:19:10.976Z,39.24
2019-04-01T19:22:14.484Z,39.36
2019-04-01T19:25:17.828Z,39.29
2019-04-01T19:28:21.166Z,39.56
2019-04-01T19:31:24.569Z,39.29
2019-04-01T19:34:27.979Z,39.53
2019-04-01T19:37:33.698Z,39.56
2019-04-01T19:40:36.495Z,39.85
2019-04-01T19:43:39.815Z,39.84
2019-04-01T19:46:43.156Z,39.68
2019-04-01T19:49:46.464Z,39.82
2019-04-01T19:52:49.857Z,40.06
2019-04-01T19:55:53.158Z,40.20
2019-04-01T19:58:56.500Z,40.19
2019-04-01T20:01:59.830Z,40.12
2019-04-01T20:05:03.870Z,40.17
2019-04-01T20:08:07.669Z,40.73
2019-04-01T20:11:10.980Z,40.58
2019-04-01T20:14:14.279Z,40.33
2019-04-01T20:17:17.607Z,40.51
2019-04-01T20:20:20.983Z,40.64
2019-04-01T20:23:24.296Z,40.86
2019-04-01T20:26:27.648Z,41.13
2019-04-01T20:29:30.987Z,41.07
2019-04-01T20:32:34.325Z,41.13
2019-04-01T20:35:37.644Z,41.09
2019-04-01T20:38:40.984Z,41.15
2019-04-01T20:41:44.379Z,41.14
2019-04-01T20:44:47.779Z,41.32
2019-04-01T20:47:51.126Z,41.83
2019-04-01T20:50:55.107Z,42.21
2019-04-01T20:53:58.610Z,42.26
2019-04-01T20:57:04.952Z,42.41
2019-04-01T21:00:09.253Z,42.35
2019-04-01T21:03:12.805Z,42.42
2019-04-01T21:06:16.181Z,42.62
2019-04-01T21:09:19.516Z,42.87
2019-04-01T21:12:22.844Z,43.04
2019-04-01T21:15:26.193Z,43.24
2019-04-01T21:18:29.505Z,43.78
2019-04-01T21:21:32.954Z,43.77
2019-04-01T21:24:36.298Z,44.16
2019-04-01T21:27:39.681Z,44.06
2019-04-01T21:30:45.015Z,44.37
2019-04-01T21:33:48.431Z,44.94
2019-04-01T21:36:51.741Z,44.82
2019-04-01T21:39:55.059Z,45.13
2019-04-01T21:42:58.362Z,44.94
2019-04-01T21:46:01.692Z,45.54
2019-04-01T21:49:05.020Z,45.37
2019-04-01T21:52:08.328Z,45.55
2019-04-01T21:55:11.613Z,45.85
2019-04-01T21:58:15.018Z,45.68
2019-04-01T22:01:18.301Z,45.87
2019-04-01T22:04:21.603Z,46.03
2019-04-01T22:07:24.898Z,46.44
2019-04-01T22:10:28.192Z,46.45
2019-04-01T22:13:31.497Z,46.68
2019-04-01T22:16:34.905Z,46.67
2019-04-01T22:19:38.194Z,47.08
2019-04-01T22:22:41.532Z,47.02
2019-04-01T22:25:44.833Z,47.26
2019-04-01T22:28:48.222Z,47.25
2019-04-01T22:31:51.606Z,47.62
2019-04-01T22:34:54.898Z,47.36
2019-04-01T22:37:58.234Z,47.31
2019-04-01T22:41:01.532Z,47.81
2019-04-01T22:44:04.985Z,48.14
2019-04-01T22:47:08.300Z,48.08
2019-04-01T22:50:11.577Z,48.27
2019-04-01T22:53:14.896Z,48.28
2019-04-01T22:56:18.202Z,48.74
2019-04-01T22:59:21.512Z,48.69
2019-04-01T23:02:24.821Z,48.78
2019-04-01T23:05:28.111Z,48.78
2019-04-01T23:08:31.567Z,49.19
2019-04-01T23:11:34.878Z,49.23
2019-04-01T23:14:38.252Z,49.41
2019-04-01T23:17:41.579Z,49.41
2019-04-01T23:20:44.990Z,49.44
2019-04-01T23:23:48.325Z,49.87
2019-04-01T23:26:51.624Z,49.79
2019-04-01T23:29:54.919Z,49.95
2019-04-01T23:32:58.209Z,50.22
2019-04-01T23:36:01.539Z,50.31
2019-04-01T23:39:06.891Z,50.15
2019-04-01T23:42:10.250Z,50.43
2019-04-01T23:45:13.563Z,50.54
2019-04-01T23:48:16.864Z,51.03
2019-04-01T23:51:20.157Z,51.04
2019-04-01T23:54:23.493Z,51.23
2019-04-01T23:57:26.809Z,51.20
